Time;durP1;ratioP1;P1;durP2;ratioP2;P2;SDS_P1;SDS_P2;PMS_P1;PMS_P2;Temp;Humidity;BMP_temperature;BMP_pressure;BME280_temperature;BME280_humidity;BME280_pressure;Samples;Min_cycle;Max_cycle;Signal;HPM_P1;HPM_P2
2022/12/12 00:01:27;;;;;;;44.33;23.92;;;-0.20;99.90;;;;;;4964686;28;20209;-59
2022/12/12 00:03:53;;;;;;;47.20;24.17;;;-0.30;99.90;;;;;;4967885;28;20440;-59
2022/12/12 00:06:20;;;;;;;52.53;25.65;;;-0.20;99.90;;;;;;4974675;28;20402;-57
2022/12/12 00:08:46;;;;;;;47.65;24.73;;;0.70;99.90;;;;;;4964524;28;20078;-58
2022/12/12 00:11:12;;;;;;;44.58;24.05;;;0.30;99.90;;;;;;4965106;28;20090;-59
2022/12/12 00:13:38;;;;;;;45.60;23.83;;;-0.30;99.90;;;;;;4964514;28;20030;-58
2022/12/12 00:16:05;;;;;;;44.15;23.70;;;-0.30;99.90;;;;;;4965204;28;20046;-59
2022/12/12 00:18:31;;;;;;;44.10;22.50;;;-0.10;99.90;;;;;;4963117;28;20055;-59
2022/12/12 00:20:57;;;;;;;44.72;23.90;;;0.10;99.90;;;;;;4965205;28;20034;-58
2022/12/12 00:23:24;;;;;;;50.65;24.58;;;0.00;99.90;;;;;;4965143;28;20093;-57
2022/12/12 00:26:03;;;;;;;44.08;24.42;;;0.20;99.90;;;;;;4965159;28;20513;-58
2022/12/12 00:28:29;;;;;;;44.53;23.42;;;-0.20;99.90;;;;;;4963968;28;20441;-59
2022/12/12 00:30:55;;;;;;;45.55;23.65;;;0.00;99.90;;;;;;4964133;28;20053;-58
2022/12/12 00:33:21;;;;;;;46.90;24.55;;;0.10;99.90;;;;;;4965553;28;20549;-58
2022/12/12 00:35:52;;;;;;;48.20;25.55;;;-0.40;99.90;;;;;;4964282;28;20046;-58
2022/12/12 00:38:21;;;;;;;45.47;22.30;;;-0.30;99.90;;;;;;4965509;28;20058;-57
2022/12/12 00:40:47;;;;;;;43.70;22.98;;;0.00;99.90;;;;;;4964792;28;20417;-58
2022/12/12 00:43:13;;;;;;;41.03;21.60;;;0.40;99.90;;;;;;4962817;28;20081;-59
2022/12/12 00:45:39;;;;;;;44.42;24.38;;;0.10;99.90;;;;;;4964317;28;20121;-58
2022/12/12 00:48:05;;;;;;;43.88;23.42;;;0.10;99.90;;;;;;4964965;28;20068;-58
2022/12/12 00:50:33;;;;;;;44.13;23.38;;;-0.10;99.90;;;;;;4964943;28;20053;-59
2022/12/12 00:52:59;;;;;;;43.45;23.08;;;-0.10;99.90;;;;;;4964064;28;20043;-59
2022/12/12 00:55:25;;;;;;;47.22;25.40;;;0.20;99.90;;;;;;4964566;28;20066;-60
2022/12/12 00:57:51;;;;;;;46.95;22.75;;;-0.20;99.90;;;;;;4963649;28;20046;-57
2022/12/12 01:00:18;;;;;;;45.67;24.58;;;0.70;99.90;;;;;;4963185;28;20389;-57
2022/12/12 01:02:44;;;;;;;48.90;25.63;;;-0.30;99.90;;;;;;4964427;28;20080;-58
2022/12/12 01:05:10;;;;;;;41.22;21.45;;;-0.10;99.90;;;;;;4972648;28;20524;-58
2022/12/12 01:07:36;;;;;;;44.78;23.58;;;-0.10;99.90;;;;;;4967026;28;20071;-59
2022/12/12 01:10:03;;;;;;;44.25;23.90;;;0.00;99.90;;;;;;4963452;28;20047;-58
2022/12/12 01:12:28;;;;;;;49.55;25.50;;;-0.10;99.90;;;;;;4963089;28;20070;-57
2022/12/12 01:14:54;;;;;;;51.65;25.13;;;-0.20;99.90;;;;;;4964344;28;20161;-58
2022/12/12 01:17:20;;;;;;;48.70;24.20;;;0.00;99.90;;;;;;4963789;28;20047;-58
2022/12/12 01:19:45;;;;;;;45.90;23.08;;;0.00;99.90;;;;;;4962545;28;20057;-59
2022/12/12 01:22:11;;;;;;;41.20;22.15;;;-0.20;99.90;;;;;;4963205;28;20492;-58
2022/12/12 01:24:37;;;;;;;45.95;24.05;;;0.50;99.90;;;;;;4964270;28;20098;-58
2022/12/12 01:27:03;;;;;;;46.20;23.08;;;-0.30;99.90;;;;;;4963679;28;20375;-60
2022/12/12 01:29:28;;;;;;;47.38;22.88;;;-0.30;99.90;;;;;;4962571;28;20733;-58
2022/12/12 01:31:54;;;;;;;42.35;22.88;;;-0.20;99.90;;;;;;4964263;28;20093;-58
2022/12/12 01:34:20;;;;;;;43.53;23.17;;;0.30;99.90;;;;;;4963814;28;20121;-58
2022/12/12 01:36:45;;;;;;;43.80;23.83;;;0.20;99.90;;;;;;4963259;28;20057;-58
2022/12/12 01:39:11;;;;;;;44.03;23.08;;;-0.20;99.90;;;;;;4962870;28;20500;-57
2022/12/12 01:41:37;;;;;;;41.47;22.92;;;0.70;99.90;;;;;;4963056;28;20137;-57
2022/12/12 01:44:24;;;;;;;41.92;23.48;;;-0.10;99.90;;;;;;4962600;28;20042;-58
2022/12/12 01:46:49;;;;;;;44.17;23.40;;;0.20;99.90;;;;;;4962659;28;20208;-59
2022/12/12 01:49:24;;;;;;;44.90;24.45;;;0.40;99.90;;;;;;4962938;28;20502;-58
2022/12/12 01:51:53;;;;;;;40.38;21.83;;;-0.20;99.90;;;;;;4962805;28;20057;-58
2022/12/12 01:54:31;;;;;;;44.47;24.02;;;-0.30;99.90;;;;;;4962811;28;20046;-59
2022/12/12 01:57:02;;;;;;;39.83;22.77;;;-0.30;99.90;;;;;;4963190;28;20042;-58
2022/12/12 01:59:28;;;;;;;39.25;22.90;;;-0.10;99.90;;;;;;4962386;28;20407;-56
2022/12/12 02:01:54;;;;;;;44.10;23.30;;;0.00;99.90;;;;;;4962849;28;20505;-58
2022/12/12 02:04:21;;;;;;;45.58;24.13;;;-0.30;99.90;;;;;;4966089;28;20047;-59
2022/12/12 02:06:49;;;;;;;40.35;23.27;;;-0.40;99.90;;;;;;4972585;28;20449;-58
2022/12/12 02:09:15;;;;;;;43.63;23.85;;;-0.10;99.90;;;;;;4962998;28;20137;-57
2022/12/12 02:11:50;;;;;;;39.30;22.08;;;-0.20;99.90;;;;;;4963581;28;20082;-58
2022/12/12 02:14:24;;;;;;;40.10;22.60;;;0.10;99.90;;;;;;4962618;28;20043;-58
2022/12/12 02:17:08;;;;;;;39.58;22.05;;;-0.40;99.90;;;;;;4963198;28;20500;-58
2022/12/12 02:20:11;;;;;;;41.55;23.35;;;0.00;99.90;;;;;;4963127;28;20043;-58
2022/12/12 02:23:00;;;;;;;39.90;22.23;;;-0.10;99.90;;;;;;4962914;28;20062;-58
2022/12/12 02:25:45;;;;;;;40.33;21.58;;;-0.30;99.90;;;;;;4963401;28;20655;-58
2022/12/12 02:28:45;;;;;;;43.70;22.83;;;0.00;99.90;;;;;;4978907;28;20109;-58
2022/12/12 02:31:17;;;;;;;41.42;22.08;;;-0.10;99.90;;;;;;4982096;28;20051;-58
2022/12/12 02:34:02;;;;;;;35.45;19.33;;;-0.10;99.90;;;;;;4981687;28;20046;-57
2022/12/12 02:36:38;;;;;;;42.65;23.95;;;-0.40;99.90;;;;;;4982923;28;20046;-57
2022/12/12 02:39:12;;;;;;;42.88;23.15;;;0.50;99.90;;;;;;4981575;28;20046;-59
2022/12/12 02:41:43;;;;;;;42.75;22.75;;;-0.20;99.90;;;;;;4982192;28;20050;-59
2022/12/12 02:44:41;;;;;;;42.40;21.85;;;0.20;99.90;;;;;;4981269;28;20042;-57
2022/12/12 02:47:24;;;;;;;42.35;23.73;;;-0.30;99.90;;;;;;4982026;28;20418;-59
2022/12/12 02:49:56;;;;;;;39.78;21.75;;;-0.30;99.90;;;;;;4981365;28;20104;-57
2022/12/12 02:52:22;;;;;;;41.20;21.85;;;-0.10;99.90;;;;;;4982100;28;20069;-60
2022/12/12 02:54:48;;;;;;;38.35;21.58;;;-0.20;99.90;;;;;;4986025;28;20557;-57
2022/12/12 02:57:23;;;;;;;43.30;23.70;;;-0.30;99.90;;;;;;4985474;28;20158;-59
2022/12/12 03:00:03;;;;;;;42.05;24.52;;;-0.30;99.90;;;;;;4986146;28;20378;-59
2022/12/12 03:09:26;;;;;;;39.97;22.48;;;-0.10;99.90;;;;;;4966249;28;20086;-58
2022/12/12 03:12:06;;;;;;;42.25;22.58;;;-0.30;99.90;;;;;;4965658;28;20046;-58
2022/12/12 03:14:52;;;;;;;42.75;23.10;;;0.40;99.90;;;;;;4965446;28;20092;-60
2022/12/12 03:17:24;;;;;;;40.28;23.10;;;0.00;99.90;;;;;;4974622;28;20042;-58
2022/12/12 03:19:58;;;;;;;42.88;23.25;;;-0.10;99.90;;;;;;4965941;28;20609;-60
2022/12/12 03:22:40;;;;;;;42.20;23.67;;;-0.10;99.90;;;;;;4965643;28;20058;-59
2022/12/12 03:25:26;;;;;;;40.75;22.88;;;-0.20;99.90;;;;;;4965953;28;20065;-57
2022/12/12 03:27:52;;;;;;;38.72;21.88;;;-0.30;99.90;;;;;;4965580;28;20062;-59
2022/12/12 03:30:19;;;;;;;42.25;24.25;;;0.00;99.90;;;;;;4966330;28;20053;-58
2022/12/12 03:32:58;;;;;;;38.78;22.13;;;-0.20;99.90;;;;;;4980044;28;20047;-57
2022/12/12 03:35:30;;;;;;;43.47;23.75;;;-0.40;99.90;;;;;;4965982;28;20057;-58
2022/12/12 03:38:11;;;;;;;43.13;24.15;;;-0.30;99.90;;;;;;4965993;28;20454;-58
2022/12/12 03:40:44;;;;;;;41.42;23.38;;;-0.20;99.90;;;;;;4966172;28;20177;-57
2022/12/12 03:43:21;;;;;;;40.70;23.55;;;-0.10;99.90;;;;;;4963782;28;20067;-59
2022/12/12 03:45:56;;;;;;;40.38;23.90;;;0.30;99.90;;;;;;4964943;28;20069;-59
2022/12/12 03:48:39;;;;;;;40.55;23.98;;;-0.30;99.90;;;;;;4965511;28;20097;-58
2022/12/12 03:51:14;;;;;;;41.50;23.77;;;-0.30;99.90;;;;;;4965676;28;20593;-60
2022/12/12 03:53:46;;;;;;;40.08;23.45;;;0.50;99.90;;;;;;4966064;28;20117;-58
2022/12/12 03:56:25;;;;;;;41.45;24.20;;;0.10;99.90;;;;;;4980166;28;20061;-58
2022/12/12 03:59:00;;;;;;;41.22;23.42;;;0.00;99.90;;;;;;4964753;28;20513;-59
2022/12/12 04:01:35;;;;;;;40.25;23.85;;;0.60;99.90;;;;;;4965570;28;20592;-58
2022/12/12 04:04:24;;;;;;;38.05;22.80;;;0.20;99.90;;;;;;4967190;28;20053;-59
2022/12/12 04:06:58;;;;;;;38.55;23.67;;;0.40;99.90;;;;;;4973690;28;20093;-58
2022/12/12 04:15:38;;;;;;;37.65;22.58;;;0.00;99.90;;;;;;4964774;28;20053;-58
2022/12/12 04:18:34;;;;;;;39.78;24.08;;;-0.20;99.90;;;;;;4964033;28;20046;-58
2022/12/12 04:24:13;;;;;;;41.22;23.27;;;-0.90;99.90;;;;;;4964936;28;20051;-58
2022/12/12 04:27:06;;;;;;;40.22;22.88;;;-0.30;99.90;;;;;;4964119;28;20999;-58
2022/12/12 04:30:02;;;;;;;41.05;24.42;;;-0.20;99.90;;;;;;4965153;28;20051;-59
2022/12/12 04:32:42;;;;;;;37.63;22.38;;;-0.40;99.90;;;;;;4964991;28;20047;-59
2022/12/12 04:35:10;;;;;;;44.65;23.95;;;-0.20;99.90;;;;;;4964171;28;20043;-58
2022/12/12 04:37:47;;;;;;;47.60;24.35;;;-0.20;99.90;;;;;;4965075;28;20085;-57
2022/12/12 04:40:21;;;;;;;45.45;24.98;;;-0.60;99.90;;;;;;4965425;28;20047;-58
2022/12/12 04:42:58;;;;;;;;;;;-0.40;99.90;;;;;;4964482;28;20062;-57
2022/12/12 04:45:28;;;;;;;40.33;22.75;;;-0.50;99.90;;;;;;4964487;28;19926;-57
2022/12/12 04:47:55;;;;;;;41.33;22.63;;;-0.30;99.90;;;;;;4963734;28;20081;-58
2022/12/12 04:50:24;;;;;;;46.08;24.85;;;-0.40;99.90;;;;;;4964413;28;20094;-57
2022/12/12 04:52:54;;;;;;;41.38;22.67;;;-0.30;99.90;;;;;;4964099;28;20129;-55
2022/12/12 04:55:27;;;;;;;41.92;23.77;;;-0.40;99.90;;;;;;4964169;28;20090;-57
2022/12/12 04:57:54;;;;;;;42.03;24.42;;;-0.20;99.90;;;;;;4964135;28;20045;-58
2022/12/12 05:00:22;;;;;;;44.15;25.77;;;-0.30;99.90;;;;;;4964571;28;20039;-58
2022/12/12 05:03:16;;;;;;;43.03;23.25;;;0.40;99.90;;;;;;4964274;28;20145;-58
2022/12/12 05:05:53;;;;;;;42.00;23.45;;;-0.40;99.90;;;;;;4975620;28;20445;-59
2022/12/12 05:08:50;;;;;;;42.38;24.83;;;-0.20;99.90;;;;;;4963252;28;20097;-57
2022/12/12 05:11:17;;;;;;;40.08;23.30;;;-0.40;99.90;;;;;;4967221;28;20058;-59
2022/12/12 05:13:43;;;;;;;44.35;25.30;;;-0.50;99.90;;;;;;4962518;28;20051;-59
2022/12/12 05:16:17;;;;;;;42.33;24.45;;;-0.50;99.90;;;;;;4975491;28;20049;-61
2022/12/12 05:18:43;;;;;;;45.58;25.85;;;-0.20;99.90;;;;;;4983574;28;20192;-57
2022/12/12 05:21:09;;;;;;;42.67;25.50;;;-0.20;99.90;;;;;;4983201;28;20488;-59
2022/12/12 05:23:35;;;;;;;44.38;25.17;;;-0.30;99.90;;;;;;4983585;28;20046;-58
2022/12/12 05:26:09;;;;;;;47.67;26.10;;;-0.10;99.90;;;;;;4982219;28;20125;-58
2022/12/12 05:28:36;;;;;;;43.95;25.00;;;-0.40;99.90;;;;;;4982709;28;20058;-59
2022/12/12 05:31:01;;;;;;;41.85;23.85;;;0.10;99.90;;;;;;4982651;28;20541;-57
2022/12/12 05:33:27;;;;;;;41.72;24.13;;;-0.30;99.90;;;;;;4983035;28;20093;-58
2022/12/12 05:35:53;;;;;;;42.30;23.92;;;-0.20;99.90;;;;;;4983318;28;20046;-59
2022/12/12 05:38:18;;;;;;;47.50;27.00;;;-0.30;99.90;;;;;;4982563;28;20504;-58
2022/12/12 05:40:44;;;;;;;46.95;26.20;;;-0.20;99.90;;;;;;4983097;28;20421;-57
2022/12/12 05:43:10;;;;;;;50.17;25.50;;;-0.30;99.90;;;;;;4981261;28;20038;-58
2022/12/12 05:45:35;;;;;;;49.42;27.30;;;-0.60;99.90;;;;;;4982669;28;20090;-58
2022/12/12 05:48:01;;;;;;;49.22;27.33;;;-0.40;99.90;;;;;;4982042;28;20061;-58
2022/12/12 05:50:27;;;;;;;49.10;25.38;;;-0.50;99.90;;;;;;4982822;28;20619;-59
2022/12/12 05:52:52;;;;;;;46.55;25.35;;;-0.40;99.90;;;;;;4981649;28;20243;-58
2022/12/12 05:55:18;;;;;;;46.35;26.27;;;-0.10;99.90;;;;;;4983188;28;20501;-58
2022/12/12 05:57:44;;;;;;;54.63;28.40;;;-0.80;99.90;;;;;;4981358;28;20042;-58
2022/12/12 06:00:10;;;;;;;51.08;27.10;;;-0.10;99.90;;;;;;4983746;28;20038;-58
2022/12/12 06:02:36;;;;;;;51.13;27.73;;;-0.80;99.90;;;;;;4983179;28;20137;-58
2022/12/12 06:05:01;;;;;;;48.38;26.55;;;-0.50;99.90;;;;;;4976711;28;20129;-58
2022/12/12 06:07:27;;;;;;;52.55;25.75;;;-0.50;99.90;;;;;;4967054;28;20193;-58
2022/12/12 06:09:54;;;;;;;49.65;27.27;;;-0.90;99.90;;;;;;4963216;28;20047;-58
2022/12/12 06:12:20;;;;;;;53.63;27.70;;;-0.60;99.90;;;;;;4962370;28;20425;-57
2022/12/12 06:14:46;;;;;;;53.67;27.15;;;-0.90;99.90;;;;;;4963308;28;20051;-58
2022/12/12 06:17:11;;;;;;;51.08;28.17;;;-0.10;99.90;;;;;;4963275;28;20035;-58
2022/12/12 06:19:37;;;;;;;55.45;27.83;;;-0.80;99.90;;;;;;4963509;28;20164;-59
2022/12/12 06:22:03;;;;;;;50.92;27.70;;;-0.90;99.90;;;;;;4963064;28;20201;-58
2022/12/12 06:24:28;;;;;;;57.28;28.60;;;-0.70;99.90;;;;;;4963170;28;20054;-59
2022/12/12 06:26:54;;;;;;;54.80;28.15;;;-0.70;99.90;;;;;;4962655;28;20647;-58
2022/12/12 06:29:20;;;;;;;54.53;29.92;;;-0.80;99.90;;;;;;4966879;28;20054;-58
2022/12/12 06:31:46;;;;;;;57.08;29.02;;;-1.00;99.90;;;;;;4967288;28;20129;-59
2022/12/12 06:34:11;;;;;;;55.97;28.95;;;-0.80;99.90;;;;;;4966050;28;20074;-57
2022/12/12 06:36:37;;;;;;;59.42;29.70;;;-0.70;99.90;;;;;;4966794;28;20050;-58
2022/12/12 06:39:03;;;;;;;59.58;29.98;;;-1.20;99.90;;;;;;4966918;28;20042;-58
2022/12/12 06:41:30;;;;;;;58.72;30.98;;;-1.20;99.90;;;;;;4977346;28;20093;-59
2022/12/12 06:43:56;;;;;;;54.72;26.80;;;-0.80;99.90;;;;;;4985374;28;20267;-58
2022/12/12 06:46:25;;;;;;;54.17;28.45;;;-1.00;99.90;;;;;;4986398;28;20496;-58
2022/12/12 06:48:51;;;;;;;56.53;28.30;;;-0.90;99.90;;;;;;4986549;28;20528;-59
2022/12/12 06:51:22;;;;;;;60.53;30.30;;;-1.10;99.90;;;;;;4986364;28;20038;-57
2022/12/12 06:53:48;;;;;;;57.28;29.30;;;-1.00;99.90;;;;;;4986542;28;20057;-58
2022/12/12 06:56:21;;;;;;;58.60;30.70;;;-0.60;99.90;;;;;;4985377;28;20046;-58
2022/12/12 06:58:48;;;;;;;57.78;29.80;;;-1.30;99.90;;;;;;4986354;28;20062;-58
2022/12/12 07:01:15;;;;;;;58.40;30.20;;;-1.00;99.90;;;;;;4985303;28;20112;-57
2022/12/12 07:03:40;;;;;;;58.90;30.00;;;-1.00;99.90;;;;;;4984212;28;20050;-57
2022/12/12 07:06:07;;;;;;;61.60;30.88;;;-1.20;99.90;;;;;;4977028;28;20486;-58
2022/12/12 07:08:34;;;;;;;58.50;30.00;;;-1.40;99.90;;;;;;4966075;28;20145;-57
2022/12/12 07:11:10;;;;;;;61.13;30.15;;;-0.50;99.90;;;;;;4965297;28;20616;-58
2022/12/12 07:13:36;;;;;;;58.03;29.30;;;-1.30;99.90;;;;;;4965213;28;20613;-58
2022/12/12 07:16:02;;;;;;;57.13;29.27;;;-1.40;99.90;;;;;;4965690;28;20136;-57
2022/12/12 07:18:28;;;;;;;54.22;27.65;;;-1.10;99.90;;;;;;4965926;28;20536;-59
2022/12/12 07:20:54;;;;;;;61.90;30.38;;;-1.40;99.90;;;;;;4966092;28;20074;-59
2022/12/12 07:23:20;;;;;;;55.88;29.00;;;-1.40;99.90;;;;;;4966032;28;20516;-57
2022/12/12 07:25:45;;;;;;;62.55;29.85;;;-1.10;99.90;;;;;;4965048;28;20089;-58
2022/12/12 07:28:12;;;;;;;59.15;28.23;;;-1.20;99.90;;;;;;4964793;28;20035;-57
2022/12/12 07:30:40;;;;;;;59.85;29.90;;;-1.00;99.90;;;;;;4964705;28;20051;-56
2022/12/12 07:33:06;;;;;;;62.05;29.33;;;-1.40;99.90;;;;;;4966565;28;20169;-58
2022/12/12 07:35:32;;;;;;;56.22;27.85;;;-1.20;99.90;;;;;;4965246;28;20515;-58
2022/12/12 07:37:58;;;;;;;60.15;29.70;;;-0.90;99.90;;;;;;4966269;28;20051;-57
2022/12/12 07:40:24;;;;;;;56.95;29.70;;;-1.30;99.90;;;;;;4964746;28;20126;-57
2022/12/12 07:42:49;;;;;;;57.78;30.25;;;-1.10;99.90;;;;;;4964383;28;20050;-58
2022/12/12 07:45:15;;;;;;;54.05;27.67;;;-1.30;99.90;;;;;;4963675;28;20145;-57
2022/12/12 07:47:41;;;;;;;55.85;29.42;;;-1.30;99.90;;;;;;4964793;28;20054;-56
2022/12/12 07:50:07;;;;;;;55.80;30.02;;;-1.20;99.90;;;;;;4964762;28;20542;-58
2022/12/12 07:52:33;;;;;;;62.45;30.65;;;-1.40;99.90;;;;;;4964261;28;20046;-58
2022/12/12 07:54:58;;;;;;;54.35;28.73;;;-0.30;99.90;;;;;;4964025;28;20045;-56
2022/12/12 07:57:24;;;;;;;59.40;30.60;;;-1.30;99.90;;;;;;4963886;28;20078;-58
2022/12/12 07:59:50;;;;;;;55.03;28.98;;;-1.40;99.90;;;;;;4964714;28;20042;-59
2022/12/12 08:02:15;;;;;;;51.67;26.85;;;-1.10;99.90;;;;;;4963882;28;20223;-59
2022/12/12 08:04:41;;;;;;;53.22;28.42;;;-1.40;99.90;;;;;;4968912;28;21124;-59
2022/12/12 08:07:07;;;;;;;55.00;29.00;;;-1.10;99.90;;;;;;4970858;28;20125;-58
2022/12/12 08:09:32;;;;;;;56.28;29.63;;;-1.20;99.90;;;;;;4964765;28;20051;-58
2022/12/12 08:11:59;;;;;;;59.25;30.67;;;-1.30;99.90;;;;;;4963495;28;20664;-58
2022/12/12 08:14:25;;;;;;;58.92;29.38;;;-0.60;99.90;;;;;;4965432;28;20623;-59
2022/12/12 08:16:51;;;;;;;60.15;29.98;;;-0.80;99.90;;;;;;4965253;28;20118;-59
2022/12/12 08:19:17;;;;;;;54.47;28.42;;;-0.30;99.90;;;;;;4965190;28;20650;-58
2022/12/12 08:21:43;;;;;;;62.47;30.45;;;-0.70;99.90;;;;;;4964299;28;20122;-58
2022/12/12 08:24:11;;;;;;;61.97;29.75;;;-1.30;99.90;;;;;;4965255;28;20425;-55
2022/12/12 08:26:37;;;;;;;62.85;31.30;;;-1.10;99.90;;;;;;4964228;28;20505;-58
2022/12/12 08:29:03;;;;;;;60.30;30.90;;;-1.10;99.90;;;;;;4964345;28;20043;-58
2022/12/12 08:31:29;;;;;;;65.10;31.77;;;-1.00;99.90;;;;;;4965004;28;20489;-58
2022/12/12 08:33:55;;;;;;;59.33;31.08;;;-1.00;99.90;;;;;;4965068;28;20082;-57
2022/12/12 08:36:29;;;;;;;66.35;33.25;;;-0.50;99.90;;;;;;4964876;28;20053;-59
2022/12/12 08:38:55;;;;;;;60.05;30.83;;;-0.90;99.90;;;;;;4963361;28;20057;-57
2022/12/12 08:41:21;;;;;;;60.15;30.98;;;-0.40;99.90;;;;;;4963053;28;20046;-57
2022/12/12 08:43:47;;;;;;;64.85;33.03;;;-1.00;99.90;;;;;;4964629;28;20476;-58
2022/12/12 08:46:14;;;;;;;62.50;31.67;;;-0.20;99.90;;;;;;4964126;28;20046;-58
2022/12/12 08:48:40;;;;;;;56.50;30.23;;;-1.10;99.90;;;;;;4963895;28;20058;-60
2022/12/12 08:51:06;;;;;;;58.58;31.73;;;-1.00;99.90;;;;;;4963565;28;20624;-60
2022/12/12 08:53:32;;;;;;;61.25;31.25;;;-0.60;99.90;;;;;;4964315;28;20078;-59
2022/12/12 08:55:58;;;;;;;57.92;30.38;;;-0.80;99.90;;;;;;4962815;28;20054;-58
2022/12/12 08:58:23;;;;;;;60.95;31.50;;;-0.70;99.90;;;;;;4964688;28;20081;-58
2022/12/12 09:00:49;;;;;;;61.63;31.42;;;-1.00;99.90;;;;;;4964169;28;20073;-57
2022/12/12 09:03:16;;;;;;;68.78;32.55;;;-0.90;99.90;;;;;;4964439;28;20055;-58
2022/12/12 09:05:43;;;;;;;63.28;31.15;;;-0.90;99.90;;;;;;4974050;28;20074;-59
2022/12/12 09:08:10;;;;;;;65.72;32.40;;;-0.70;99.90;;;;;;4963217;28;20059;-56
2022/12/12 09:10:36;;;;;;;58.90;30.50;;;-0.60;99.90;;;;;;4964358;28;20050;-59
2022/12/12 09:13:01;;;;;;;61.20;31.50;;;-0.20;99.90;;;;;;4963133;28;20359;-57
2022/12/12 09:15:27;;;;;;;57.60;30.52;;;-0.40;99.90;;;;;;4963414;28;20097;-58
2022/12/12 09:17:53;;;;;;;59.95;32.47;;;-0.30;99.90;;;;;;4963998;28;20051;-61
2022/12/12 09:20:18;;;;;;;62.83;32.25;;;-0.70;99.90;;;;;;4964254;28;20126;-58
2022/12/12 09:22:44;;;;;;;61.67;32.60;;;-1.00;99.90;;;;;;4963944;28;20069;-57
2022/12/12 09:25:10;;;;;;;65.05;32.92;;;-0.40;99.90;;;;;;4963937;28;20086;-58
2022/12/12 09:27:36;;;;;;;65.72;32.75;;;0.10;99.90;;;;;;4963020;28;20505;-57
2022/12/12 09:30:02;;;;;;;71.25;34.30;;;-0.90;99.90;;;;;;4963776;28;20039;-58
2022/12/12 09:32:27;;;;;;;64.45;32.83;;;-0.70;99.90;;;;;;4963227;28;20039;-58
2022/12/12 09:34:53;;;;;;;60.55;32.78;;;-0.30;99.90;;;;;;4964504;28;20528;-58
2022/12/12 09:37:19;;;;;;;61.88;33.55;;;-0.80;99.90;;;;;;4963587;28;20046;-58
2022/12/12 09:39:45;;;;;;;65.20;32.88;;;-0.20;99.90;;;;;;4963867;28;20066;-58
2022/12/12 09:42:38;;;;;;;65.93;34.38;;;-0.20;99.90;;;;;;4961507;28;20043;-58
2022/12/12 09:45:06;;;;;;;60.63;31.48;;;-0.80;99.90;;;;;;4963658;28;20093;-58
2022/12/12 09:47:58;;;;;;;61.20;31.60;;;-0.80;99.90;;;;;;4962278;28;20462;-58
2022/12/12 09:50:43;;;;;;;58.75;32.08;;;-0.80;99.90;;;;;;4964080;28;20502;-59
2022/12/12 09:53:14;;;;;;;60.22;31.90;;;-0.80;99.90;;;;;;4963418;28;20071;-59
2022/12/12 09:55:45;;;;;;;58.85;31.42;;;-0.70;99.90;;;;;;4964417;28;20555;-56
2022/12/12 09:58:29;;;;;;;64.70;32.28;;;-0.60;99.90;;;;;;4963336;28;20098;-57
2022/12/12 10:01:05;;;;;;;58.38;32.67;;;-0.30;99.90;;;;;;4962844;28;20067;-59
2022/12/12 10:03:45;;;;;;;60.53;32.70;;;-0.50;99.90;;;;;;4963058;28;20057;-59
2022/12/12 10:06:12;;;;;;;56.97;31.20;;;0.20;99.90;;;;;;4968720;28;20047;-58
2022/12/12 10:08:52;;;;;;;59.53;32.42;;;-0.50;99.90;;;;;;4963406;28;20409;-57
2022/12/12 10:14:14;;;;;;;56.28;31.52;;;0.10;99.90;;;;;;4961430;28;20058;-57
2022/12/12 10:16:41;;;;;;;57.78;31.42;;;0.10;99.90;;;;;;4962121;28;20089;-58
2022/12/12 10:19:29;;;;;;;55.30;31.52;;;-0.40;99.90;;;;;;4963054;28;20505;-58
2022/12/12 10:22:03;;;;;;;52.35;30.83;;;0.30;99.90;;;;;;4961798;28;20059;-57
2022/12/12 10:24:50;;;;;;;54.33;30.30;;;0.20;99.90;;;;;;4962885;28;20142;-58
2022/12/12 10:27:16;;;;;;;50.75;28.05;;;0.30;99.90;;;;;;4961086;28;20581;-57
2022/12/12 10:29:47;;;;;;;51.90;28.80;;;0.20;99.90;;;;;;4951487;28;20046;-58
2022/12/12 10:32:40;;;;;;;50.75;29.65;;;0.30;99.90;;;;;;4979598;28;20074;-57
2022/12/12 10:35:22;;;;;;;53.47;29.77;;;0.50;99.90;;;;;;4982090;28;20047;-58
2022/12/12 10:38:20;;;;;;;48.50;26.55;;;0.90;99.90;;;;;;4981772;28;20049;-58
2022/12/12 10:41:05;;;;;;;47.58;27.60;;;0.70;99.90;;;;;;4979275;28;20395;-59
2022/12/12 10:43:44;;;;;;;49.85;29.58;;;0.80;99.90;;;;;;4980732;28;20054;-58
2022/12/12 10:46:30;;;;;;;43.08;26.58;;;0.60;99.90;;;;;;4980811;28;20046;-57
2022/12/12 10:48:56;;;;;;;47.38;27.13;;;0.70;99.90;;;;;;4980756;28;20080;-58
2022/12/12 10:51:26;;;;;;;46.00;27.75;;;0.60;99.90;;;;;;4982070;28;20681;-58
2022/12/12 10:53:52;;;;;;;47.63;28.67;;;1.00;99.90;;;;;;4981506;28;20235;-58
2022/12/12 10:56:21;;;;;;;45.72;26.48;;;0.50;99.90;;;;;;4980565;28;20073;-57
2022/12/12 10:58:58;;;;;;;43.42;27.15;;;0.60;99.90;;;;;;4981248;28;20093;-60
2022/12/12 11:01:31;;;;;;;42.28;26.00;;;0.40;99.90;;;;;;4980144;28;20193;-57
2022/12/12 11:03:58;;;;;;;47.85;28.73;;;0.50;99.90;;;;;;4978901;28;20089;-57
2022/12/12 11:06:36;;;;;;;49.83;27.65;;;0.70;99.90;;;;;;4970044;28;20047;-56
2022/12/12 11:09:29;;;;;;;49.95;28.60;;;0.30;99.90;;;;;;4961721;28;20035;-57
2022/12/12 11:12:10;;;;;;;45.78;28.65;;;0.50;99.90;;;;;;4961325;28;20801;-57
2022/12/12 11:14:48;;;;;;;43.63;25.73;;;0.30;99.90;;;;;;4961356;28;20047;-57
2022/12/12 11:17:23;;;;;;;44.17;27.58;;;0.30;99.90;;;;;;4965856;28;20167;-58
2022/12/12 11:19:52;;;;;;;44.15;27.23;;;0.30;99.90;;;;;;4965758;28;20050;-56
2022/12/12 11:22:19;;;;;;;42.88;26.23;;;0.30;99.90;;;;;;4964939;28;20073;-57
2022/12/12 11:24:46;;;;;;;43.92;26.42;;;0.30;99.90;;;;;;4964299;28;20594;-58
2022/12/12 11:27:26;;;;;;;40.90;24.50;;;0.30;99.90;;;;;;4964433;28;20505;-59
2022/12/12 11:29:54;;;;;;;42.55;25.80;;;0.30;99.90;;;;;;4964583;28;20113;-57
2022/12/12 11:32:30;;;;;;;42.95;24.15;;;0.50;99.90;;;;;;4966158;28;20063;-57
2022/12/12 11:35:00;;;;;;;39.95;24.63;;;0.30;99.90;;;;;;4964717;28;20055;-57
2022/12/12 11:37:36;;;;;;;40.15;23.85;;;0.20;99.90;;;;;;4964415;28;20046;-57
2022/12/12 11:40:04;;;;;;;42.03;23.13;;;0.30;99.90;;;;;;4964642;28;20050;-57
2022/12/12 11:42:32;;;;;;;41.60;24.33;;;0.40;99.90;;;;;;4964745;28;20051;-57
2022/12/12 11:45:07;;;;;;;42.10;25.02;;;0.90;99.90;;;;;;4964592;28;20059;-57
2022/12/12 11:47:44;;;;;;;40.00;24.65;;;0.20;99.90;;;;;;4964418;28;20043;-56
2022/12/12 11:50:28;;;;;;;43.70;25.83;;;0.20;99.90;;;;;;4963927;28;20058;-58
2022/12/12 11:52:58;;;;;;;38.28;22.52;;;0.20;99.90;;;;;;4965529;28;20093;-57
2022/12/12 11:55:48;;;;;;;40.78;24.42;;;0.20;99.90;;;;;;4964027;28;20057;-59
2022/12/12 11:58:31;;;;;;;40.38;24.25;;;0.30;99.90;;;;;;4964480;28;20130;-58
2022/12/12 12:01:09;;;;;;;43.03;25.73;;;0.40;99.90;;;;;;4964293;28;20039;-57
2022/12/12 12:03:55;;;;;;;41.70;26.55;;;0.20;99.90;;;;;;4964455;28;20142;-58
2022/12/12 12:06:27;;;;;;;35.60;21.50;;;0.40;99.90;;;;;;4971789;28;20050;-58
2022/12/12 12:08:56;;;;;;;37.55;24.55;;;0.40;99.90;;;;;;4964406;28;20057;-58
2022/12/12 12:11:42;;;;;;;39.22;24.92;;;0.30;99.90;;;;;;4964183;28;20042;-58
2022/12/12 12:14:17;;;;;;;38.90;24.83;;;0.40;99.90;;;;;;4964422;28;20053;-59
2022/12/12 12:17:01;;;;;;;36.10;22.52;;;0.50;99.90;;;;;;4964177;28;20059;-57
2022/12/12 12:19:38;;;;;;;36.75;23.33;;;0.90;99.90;;;;;;4963804;28;20042;-58
2022/12/12 12:22:28;;;;;;;37.15;23.30;;;0.60;99.90;;;;;;4963918;28;20759;-57
2022/12/12 12:25:16;;;;;;;41.97;24.05;;;0.70;99.90;;;;;;4963856;28;20131;-58
2022/12/12 12:28:10;;;;;;;34.38;21.17;;;0.80;99.90;;;;;;4963616;28;20138;-58
2022/12/12 12:31:10;;;;;;;23.15;15.75;;;0.80;99.90;;;;;;4963598;28;20327;-57
2022/12/12 12:33:42;;;;;;;26.38;18.25;;;0.80;99.90;;;;;;4963464;28;20073;-58
2022/12/12 12:36:21;;;;;;;29.05;19.20;;;1.00;99.90;;;;;;4964810;28;20056;-58
2022/12/12 12:39:10;;;;;;;28.08;18.55;;;1.00;99.90;;;;;;4962838;28;20101;-57
2022/12/12 12:42:09;;;;;;;27.00;18.35;;;0.90;99.90;;;;;;4962635;28;20043;-58
2022/12/12 12:44:37;;;;;;;26.05;17.90;;;0.90;99.90;;;;;;4961575;28;20141;-58
2022/12/12 12:47:36;;;;;;;26.80;18.05;;;1.00;99.90;;;;;;4963333;28;20047;-57
2022/12/12 12:50:52;;;;;;;30.77;18.70;;;0.90;99.90;;;;;;4964150;28;20069;-60
2022/12/12 12:53:36;;;;;;;;;;;0.80;99.90;;;;;;5000280;28;20041;-57
2022/12/12 12:56:13;;;;;;;28.90;19.48;;;0.80;99.90;;;;;;4965774;28;20651;-60
2022/12/12 12:58:45;;;;;;;27.45;17.73;;;1.00;99.90;;;;;;4963543;28;20046;-58
2022/12/12 13:01:17;;;;;;;26.38;18.05;;;0.90;99.90;;;;;;4962454;28;20062;-58
2022/12/12 13:03:53;;;;;;;28.98;17.20;;;1.00;99.90;;;;;;4963621;28;20721;-58
2022/12/12 13:06:38;;;;;;;26.65;17.67;;;1.50;99.90;;;;;;4971477;28;20533;-58
2022/12/12 13:09:21;;;;;;;24.98;16.50;;;1.00;99.90;;;;;;4961997;28;20047;-58
2022/12/12 13:11:52;;;;;;;26.05;16.52;;;1.00;99.90;;;;;;4961869;28;20082;-57
2022/12/12 13:14:23;;;;;;;26.92;15.85;;;1.30;99.90;;;;;;4961336;28;20102;-57